sensor_id;sensor_type;location;lat;lon;timestamp;pressure;altitude;pressure_sealevel;temperature;humidity
13952;BME280;39535;52.192;9.886;2023-07-16T00:01:46;99739.97;;;22.84;84.26
13952;BME280;39535;52.192;9.886;2023-07-16T00:04:12;99734.78;;;22.83;84.66
13952;BME280;39535;52.192;9.886;2023-07-16T00:06:39;99733.22;;;22.80;84.98
13952;BME280;39535;52.192;9.886;2023-07-16T00:09:07;99732.22;;;22.81;84.78
13952;BME280;39535;52.192;9.886;2023-07-16T00:11:33;99746.16;;;22.73;85.31
13952;BME280;39535;52.192;9.886;2023-07-16T00:13:59;99754.63;;;22.78;85.25
13952;BME280;39535;52.192;9.886;2023-07-16T00:16:27;99720.59;;;22.50;86.91
13952;BME280;39535;52.192;9.886;2023-07-16T00:18:53;99727.00;;;22.36;86.67
13952;BME280;39535;52.192;9.886;2023-07-16T00:21:20;99726.03;;;22.48;85.99
13952;BME280;39535;52.192;9.886;2023-07-16T00:23:46;99734.22;;;22.45;86.05
13952;BME280;39535;52.192;9.886;2023-07-16T00:26:14;99731.56;;;22.56;85.38
13952;BME280;39535;52.192;9.886;2023-07-16T00:28:41;99723.69;;;22.66;85.28
13952;BME280;39535;52.192;9.886;2023-07-16T00:31:07;99737.44;;;22.71;85.55
13952;BME280;39535;52.192;9.886;2023-07-16T00:33:34;99755.72;;;22.76;85.16
13952;BME280;39535;52.192;9.886;2023-07-16T00:36:00;99767.81;;;22.80;84.37
13952;BME280;39535;52.192;9.886;2023-07-16T00:38:27;99756.06;;;22.83;84.82
13952;BME280;39535;52.192;9.886;2023-07-16T00:40:53;99736.47;;;22.84;84.40
13952;BME280;39535;52.192;9.886;2023-07-16T00:43:21;99685.03;;;22.83;84.63
13952;BME280;39535;52.192;9.886;2023-07-16T00:45:49;99679.16;;;22.79;84.60
13952;BME280;39535;52.192;9.886;2023-07-16T00:48:15;99671.91;;;22.82;84.62
13952;BME280;39535;52.192;9.886;2023-07-16T00:50:42;99678.75;;;22.52;86.85
13952;BME280;39535;52.192;9.886;2023-07-16T00:53:09;99649.38;;;22.19;89.21
13952;BME280;39535;52.192;9.886;2023-07-16T00:55:36;99642.38;;;21.96;90.10
13952;BME280;39535;52.192;9.886;2023-07-16T00:58:05;99651.44;;;22.16;89.38
13952;BME280;39535;52.192;9.886;2023-07-16T01:00:34;99678.06;;;22.27;88.62
13952;BME280;39535;52.192;9.886;2023-07-16T01:03:01;99738.09;;;22.18;86.21
13952;BME280;39535;52.192;9.886;2023-07-16T01:05:33;99760.31;;;22.06;85.98
13952;BME280;39535;52.192;9.886;2023-07-16T01:08:04;99741.75;;;21.59;87.54
13952;BME280;39535;52.192;9.886;2023-07-16T01:10:33;99729.94;;;21.64;87.64
13952;BME280;39535;52.192;9.886;2023-07-16T01:13:00;99741.25;;;21.54;87.88
13952;BME280;39535;52.192;9.886;2023-07-16T01:15:27;99727.97;;;21.30;87.77
13952;BME280;39535;52.192;9.886;2023-07-16T01:17:55;99749.19;;;21.43;86.41
13952;BME280;39535;52.192;9.886;2023-07-16T01:20:21;99772.53;;;21.62;85.94
13952;BME280;39535;52.192;9.886;2023-07-16T01:23:07;99772.34;;;21.76;85.15
13952;BME280;39535;52.192;9.886;2023-07-16T01:25:53;99835.53;;;21.49;84.81
13952;BME280;39535;52.192;9.886;2023-07-16T01:28:39;99795.94;;;21.09;87.29
13952;BME280;39535;52.192;9.886;2023-07-16T01:31:12;99785.38;;;21.20;87.56
13952;BME280;39535;52.192;9.886;2023-07-16T01:33:41;99772.47;;;21.15;88.40
13952;BME280;39535;52.192;9.886;2023-07-16T01:36:08;99715.94;;;20.78;92.83
13952;BME280;39535;52.192;9.886;2023-07-16T01:38:35;99620.50;;;20.04;100.00
13952;BME280;39535;52.192;9.886;2023-07-16T01:41:02;99530.59;;;19.64;100.00
13952;BME280;39535;52.192;9.886;2023-07-16T01:43:28;99480.19;;;19.65;100.00
13952;BME280;39535;52.192;9.886;2023-07-16T01:45:55;99490.22;;;19.11;100.00
13952;BME280;39535;52.192;9.886;2023-07-16T01:48:29;99495.47;;;18.59;100.00
13952;BME280;39535;52.192;9.886;2023-07-16T01:50:56;99508.88;;;18.83;100.00
13952;BME280;39535;52.192;9.886;2023-07-16T01:53:23;99563.66;;;18.94;100.00
13952;BME280;39535;52.192;9.886;2023-07-16T01:55:49;99571.41;;;18.70;100.00
13952;BME280;39535;52.192;9.886;2023-07-16T01:58:16;99577.28;;;18.88;100.00
13952;BME280;39535;52.192;9.886;2023-07-16T02:00:42;99593.91;;;18.90;100.00
13952;BME280;39535;52.192;9.886;2023-07-16T02:03:09;99603.34;;;19.20;100.00
13952;BME280;39535;52.192;9.886;2023-07-16T02:05:37;99608.66;;;19.45;100.00
13952;BME280;39535;52.192;9.886;2023-07-16T02:08:04;99643.41;;;19.67;100.00
13952;BME280;39535;52.192;9.886;2023-07-16T02:10:30;99691.63;;;19.84;100.00
13952;BME280;39535;52.192;9.886;2023-07-16T02:12:57;99726.88;;;19.98;100.00
13952;BME280;39535;52.192;9.886;2023-07-16T02:15:23;99747.44;;;20.07;100.00
13952;BME280;39535;52.192;9.886;2023-07-16T02:17:50;99752.94;;;20.17;100.00
13952;BME280;39535;52.192;9.886;2023-07-16T02:20:16;99764.09;;;20.22;100.00
13952;BME280;39535;52.192;9.886;2023-07-16T02:22:44;99794.06;;;20.22;100.00
13952;BME280;39535;52.192;9.886;2023-07-16T02:25:11;99803.50;;;20.27;100.00
13952;BME280;39535;52.192;9.886;2023-07-16T02:27:37;99809.34;;;20.32;100.00
13952;BME280;39535;52.192;9.886;2023-07-16T02:30:05;99812.63;;;20.35;100.00
13952;BME280;39535;52.192;9.886;2023-07-16T02:32:32;99827.34;;;20.39;100.00
13952;BME280;39535;52.192;9.886;2023-07-16T02:34:58;99833.38;;;20.41;100.00
13952;BME280;39535;52.192;9.886;2023-07-16T02:37:25;99844.00;;;20.41;100.00
13952;BME280;39535;52.192;9.886;2023-07-16T02:39:53;99843.06;;;20.42;100.00
13952;BME280;39535;52.192;9.886;2023-07-16T02:42:19;99846.97;;;20.37;100.00
13952;BME280;39535;52.192;9.886;2023-07-16T02:44:46;99859.38;;;20.36;100.00
13952;BME280;39535;52.192;9.886;2023-07-16T02:47:12;99869.66;;;20.41;100.00
13952;BME280;39535;52.192;9.886;2023-07-16T02:49:39;99871.38;;;20.42;99.58
13952;BME280;39535;52.192;9.886;2023-07-16T02:52:06;99877.63;;;20.41;99.80
13952;BME280;39535;52.192;9.886;2023-07-16T02:54:33;99883.16;;;20.38;99.46
13952;BME280;39535;52.192;9.886;2023-07-16T02:57:00;99877.81;;;20.25;98.02
13952;BME280;39535;52.192;9.886;2023-07-16T02:59:27;99884.19;;;20.22;98.39
13952;BME280;39535;52.192;9.886;2023-07-16T03:01:54;99889.69;;;20.19;97.74
13952;BME280;39535;52.192;9.886;2023-07-16T03:04:20;99907.25;;;20.08;96.87
13952;BME280;39535;52.192;9.886;2023-07-16T03:06:47;99904.66;;;20.20;97.13
13952;BME280;39535;52.192;9.886;2023-07-16T03:09:14;99922.41;;;20.06;96.64
13952;BME280;39535;52.192;9.886;2023-07-16T03:11:40;99918.31;;;20.14;97.26
13952;BME280;39535;52.192;9.886;2023-07-16T03:14:08;99903.16;;;20.16;97.78
13952;BME280;39535;52.192;9.886;2023-07-16T03:16:34;99913.75;;;20.16;97.61
13952;BME280;39535;52.192;9.886;2023-07-16T03:19:01;99924.34;;;20.16;97.12
13952;BME280;39535;52.192;9.886;2023-07-16T03:21:28;99929.75;;;20.15;97.49
13952;BME280;39535;52.192;9.886;2023-07-16T03:23:54;99923.81;;;20.11;97.48
13952;BME280;39535;52.192;9.886;2023-07-16T03:26:20;99931.97;;;20.08;96.76
13952;BME280;39535;52.192;9.886;2023-07-16T03:28:47;99953.28;;;20.07;95.67
13952;BME280;39535;52.192;9.886;2023-07-16T03:31:15;99960.56;;;20.03;95.83
13952;BME280;39535;52.192;9.886;2023-07-16T03:33:41;99971.75;;;19.94;95.15
13952;BME280;39535;52.192;9.886;2023-07-16T03:36:08;99988.63;;;19.93;94.85
13952;BME280;39535;52.192;9.886;2023-07-16T03:38:34;99994.59;;;19.82;94.03
13952;BME280;39535;52.192;9.886;2023-07-16T03:41:01;100007.09;;;19.80;93.13
13952;BME280;39535;52.192;9.886;2023-07-16T03:43:27;100012.13;;;19.84;93.01
13952;BME280;39535;52.192;9.886;2023-07-16T03:45:54;100023.38;;;19.88;92.81
13952;BME280;39535;52.192;9.886;2023-07-16T03:48:22;100034.59;;;19.92;91.94
13952;BME280;39535;52.192;9.886;2023-07-16T03:50:48;100041.81;;;19.75;91.58
13952;BME280;39535;52.192;9.886;2023-07-16T03:53:15;100040.38;;;19.70;92.44
13952;BME280;39535;52.192;9.886;2023-07-16T03:55:41;100032.66;;;19.67;92.66
13952;BME280;39535;52.192;9.886;2023-07-16T03:58:08;100028.19;;;19.67;92.74
13952;BME280;39535;52.192;9.886;2023-07-16T04:00:34;100024.25;;;19.74;92.92
13952;BME280;39535;52.192;9.886;2023-07-16T04:03:00;100032.19;;;19.74;92.65
13952;BME280;39535;52.192;9.886;2023-07-16T04:05:28;100045.44;;;19.74;91.69
13952;BME280;39535;52.192;9.886;2023-07-16T04:07:55;100054.13;;;19.76;91.28
13952;BME280;39535;52.192;9.886;2023-07-16T04:10:21;100061.22;;;19.76;91.36
13952;BME280;39535;52.192;9.886;2023-07-16T04:12:48;100060.63;;;19.71;90.90
13952;BME280;39535;52.192;9.886;2023-07-16T04:15:14;100063.00;;;19.61;91.90
13952;BME280;39535;52.192;9.886;2023-07-16T04:17:41;100062.63;;;19.67;91.61
13952;BME280;39535;52.192;9.886;2023-07-16T04:20:08;100067.16;;;19.65;91.57
13952;BME280;39535;52.192;9.886;2023-07-16T04:22:36;100073.50;;;19.48;92.02
13952;BME280;39535;52.192;9.886;2023-07-16T04:25:03;100062.63;;;19.53;92.34
13952;BME280;39535;52.192;9.886;2023-07-16T04:27:30;100054.22;;;19.60;92.61
13952;BME280;39535;52.192;9.886;2023-07-16T04:29:56;100047.50;;;19.40;93.36
13952;BME280;39535;52.192;9.886;2023-07-16T04:32:23;100040.50;;;19.39;93.71
13952;BME280;39535;52.192;9.886;2023-07-16T04:34:49;100043.97;;;19.54;93.84
13952;BME280;39535;52.192;9.886;2023-07-16T04:37:16;100048.16;;;19.58;93.59
13952;BME280;39535;52.192;9.886;2023-07-16T04:39:44;100057.44;;;19.51;92.87
13952;BME280;39535;52.192;9.886;2023-07-16T04:42:10;100044.59;;;19.31;94.55
13952;BME280;39535;52.192;9.886;2023-07-16T04:44:36;100040.69;;;19.22;95.31
13952;BME280;39535;52.192;9.886;2023-07-16T04:47:04;100017.47;;;19.27;95.71
13952;BME280;39535;52.192;9.886;2023-07-16T04:49:31;100007.91;;;19.39;96.61
13952;BME280;39535;52.192;9.886;2023-07-16T04:51:58;100006.84;;;19.41;96.54
13952;BME280;39535;52.192;9.886;2023-07-16T04:54:24;100013.19;;;19.53;96.67
13952;BME280;39535;52.192;9.886;2023-07-16T04:56:52;100023.47;;;19.58;95.90
13952;BME280;39535;52.192;9.886;2023-07-16T04:59:18;100030.28;;;19.62;96.20
13952;BME280;39535;52.192;9.886;2023-07-16T05:01:45;100028.59;;;19.61;96.17
13952;BME280;39535;52.192;9.886;2023-07-16T05:04:11;100039.63;;;19.68;95.75
13952;BME280;39535;52.192;9.886;2023-07-16T05:06:38;100043.25;;;19.67;95.58
13952;BME280;39535;52.192;9.886;2023-07-16T05:09:04;100045.69;;;19.70;95.57
13952;BME280;39535;52.192;9.886;2023-07-16T05:11:31;100061.69;;;19.82;95.60
13952;BME280;39535;52.192;9.886;2023-07-16T05:13:59;100066.63;;;19.74;94.80
13952;BME280;39535;52.192;9.886;2023-07-16T05:16:26;100068.66;;;19.83;94.65
13952;BME280;39535;52.192;9.886;2023-07-16T05:18:52;100076.03;;;19.93;94.69
13952;BME280;39535;52.192;9.886;2023-07-16T05:21:19;100078.78;;;19.91;94.78
13952;BME280;39535;52.192;9.886;2023-07-16T05:23:45;100072.34;;;19.95;95.23
13952;BME280;39535;52.192;9.886;2023-07-16T05:26:12;100063.63;;;19.93;96.18
13952;BME280;39535;52.192;9.886;2023-07-16T05:28:38;100065.72;;;20.02;95.55
13952;BME280;39535;52.192;9.886;2023-07-16T05:31:06;100076.84;;;20.08;95.12
13952;BME280;39535;52.192;9.886;2023-07-16T05:33:33;100100.81;;;20.06;93.93
13952;BME280;39535;52.192;9.886;2023-07-16T05:35:59;100096.63;;;20.16;94.61
13952;BME280;39535;52.192;9.886;2023-07-16T05:38:26;100100.38;;;20.27;94.39
13952;BME280;39535;52.192;9.886;2023-07-16T05:40:52;100090.41;;;20.03;95.26
13952;BME280;39535;52.192;9.886;2023-07-16T05:43:19;100091.59;;;20.12;95.18
13952;BME280;39535;52.192;9.886;2023-07-16T05:45:45;100077.44;;;19.70;96.55
13952;BME280;39535;52.192;9.886;2023-07-16T05:48:13;100058.72;;;19.87;97.70
13952;BME280;39535;52.192;9.886;2023-07-16T05:50:39;100050.13;;;19.83;97.50
13952;BME280;39535;52.192;9.886;2023-07-16T05:53:06;100055.03;;;20.04;97.25
13952;BME280;39535;52.192;9.886;2023-07-16T05:55:32;100079.22;;;20.12;96.14
13952;BME280;39535;52.192;9.886;2023-07-16T05:57:59;100110.72;;;20.17;94.93
13952;BME280;39535;52.192;9.886;2023-07-16T06:00:25;100121.41;;;20.30;94.10
13952;BME280;39535;52.192;9.886;2023-07-16T06:02:52;100148.53;;;20.33;93.41
13952;BME280;39535;52.192;9.886;2023-07-16T06:05:19;100177.63;;;20.20;91.81
13952;BME280;39535;52.192;9.886;2023-07-16T06:07:46;100175.91;;;20.34;92.29
13952;BME280;39535;52.192;9.886;2023-07-16T06:10:13;100194.47;;;20.34;91.58
13952;BME280;39535;52.192;9.886;2023-07-16T06:12:39;100210.81;;;20.40;90.65
13952;BME280;39535;52.192;9.886;2023-07-16T06:15:07;100234.31;;;20.32;89.54
13952;BME280;39535;52.192;9.886;2023-07-16T06:17:33;100243.69;;;20.23;88.85
13952;BME280;39535;52.192;9.886;2023-07-16T06:20:00;100247.00;;;20.27;89.76
13952;BME280;39535;52.192;9.886;2023-07-16T06:22:27;100243.97;;;20.33;89.44
13952;BME280;39535;52.192;9.886;2023-07-16T06:24:54;100258.09;;;20.34;88.80
13952;BME280;39535;52.192;9.886;2023-07-16T06:27:20;100256.00;;;20.39;87.93
13952;BME280;39535;52.192;9.886;2023-07-16T06:29:47;100285.63;;;20.31;85.14
13952;BME280;39535;52.192;9.886;2023-07-16T06:32:13;100309.28;;;20.49;86.11
13952;BME280;39535;52.192;9.886;2023-07-16T06:34:40;100359.22;;;20.42;83.00
13952;BME280;39535;52.192;9.886;2023-07-16T06:37:06;100351.25;;;20.56;84.54
13952;BME280;39535;52.192;9.886;2023-07-16T06:39:34;100391.41;;;20.36;80.85
13952;BME280;39535;52.192;9.886;2023-07-16T06:42:01;100412.34;;;20.55;81.46
13952;BME280;39535;52.192;9.886;2023-07-16T06:44:27;100491.69;;;20.43;78.16
13952;BME280;39535;52.192;9.886;2023-07-16T06:46:54;100496.19;;;20.57;79.17
13952;BME280;39535;52.192;9.886;2023-07-16T06:49:21;100498.28;;;20.67;79.20
13952;BME280;39535;52.192;9.886;2023-07-16T06:51:47;100461.91;;;20.69;80.52
13952;BME280;39535;52.192;9.886;2023-07-16T06:54:14;100447.44;;;20.74;80.83
13952;BME280;39535;52.192;9.886;2023-07-16T06:56:42;100477.38;;;20.76;79.31
13952;BME280;39535;52.192;9.886;2023-07-16T06:59:08;100477.38;;;20.76;80.13
13952;BME280;39535;52.192;9.886;2023-07-16T07:01:35;100491.09;;;20.69;78.41
13952;BME280;39535;52.192;9.886;2023-07-16T07:04:01;100528.94;;;20.56;76.29
13952;BME280;39535;52.192;9.886;2023-07-16T07:06:27;100598.41;;;20.63;74.12
13952;BME280;39535;52.192;9.886;2023-07-16T07:08:54;100652.00;;;20.70;72.73
13952;BME280;39535;52.192;9.886;2023-07-16T07:11:20;100622.09;;;20.82;74.87
13952;BME280;39535;52.192;9.886;2023-07-16T07:13:48;100666.00;;;20.72;71.94
13952;BME280;39535;52.192;9.886;2023-07-16T07:16:15;100676.00;;;20.82;72.59
13952;BME280;39535;52.192;9.886;2023-07-16T07:18:42;100712.97;;;20.86;71.18
13952;BME280;39535;52.192;9.886;2023-07-16T07:21:09;100732.03;;;20.92;70.28
13952;BME280;39535;52.192;9.886;2023-07-16T07:23:35;100780.16;;;20.86;69.01
13952;BME280;39535;52.192;9.886;2023-07-16T07:26:02;100755.25;;;20.89;69.77
13952;BME280;39535;52.192;9.886;2023-07-16T07:28:28;100756.41;;;20.99;70.82
13952;BME280;39535;52.192;9.886;2023-07-16T07:30:56;100734.88;;;21.05;70.72
13952;BME280;39535;52.192;9.886;2023-07-16T07:33:23;100798.81;;;21.00;67.10
13952;BME280;39535;52.192;9.886;2023-07-16T07:35:53;100839.91;;;21.09;66.35
13952;BME280;39535;52.192;9.886;2023-07-16T07:38:19;100908.69;;;21.14;65.39
13952;BME280;39535;52.192;9.886;2023-07-16T07:40:46;100917.41;;;21.16;65.33
13952;BME280;39535;52.192;9.886;2023-07-16T07:43:12;100920.84;;;21.18;64.63
13952;BME280;39535;52.192;9.886;2023-07-16T07:45:39;101024.72;;;21.12;58.68
13952;BME280;39535;52.192;9.886;2023-07-16T07:48:06;101147.53;;;20.98;56.62
13952;BME280;39535;52.192;9.886;2023-07-16T07:50:33;101147.69;;;21.12;59.85
13952;BME280;39535;52.192;9.886;2023-07-16T07:52:59;101191.72;;;20.99;57.67
13952;BME280;39535;52.192;9.886;2023-07-16T07:55:26;101175.56;;;21.03;57.42
13952;BME280;39535;52.192;9.886;2023-07-16T07:57:52;101188.28;;;21.14;57.55
13952;BME280;39535;52.192;9.886;2023-07-16T08:00:19;101205.78;;;21.18;56.21
13952;BME280;39535;52.192;9.886;2023-07-16T08:02:46;101236.09;;;21.14;55.22
13952;BME280;39535;52.192;9.886;2023-07-16T08:05:14;101216.25;;;21.21;57.18
13952;BME280;39535;52.192;9.886;2023-07-16T08:07:40;101204.06;;;21.35;57.45
13952;BME280;39535;52.192;9.886;2023-07-16T08:10:07;101187.25;;;21.34;56.68
13952;BME280;39535;52.192;9.886;2023-07-16T08:12:34;101159.41;;;21.43;57.44
13952;BME280;39535;52.192;9.886;2023-07-16T08:15:00;101202.09;;;21.38;55.61
13952;BME280;39535;52.192;9.886;2023-07-16T08:17:27;101221.09;;;21.48;56.17
13952;BME280;39535;52.192;9.886;2023-07-16T08:19:53;101227.97;;;21.52;55.07
13952;BME280;39535;52.192;9.886;2023-07-16T08:22:21;101255.63;;;21.48;54.22
13952;BME280;39535;52.192;9.886;2023-07-16T08:24:49;101268.78;;;21.51;54.68
13952;BME280;39535;52.192;9.886;2023-07-16T08:27:16;101286.03;;;21.60;53.80
13952;BME280;39535;52.192;9.886;2023-07-16T08:29:44;101303.25;;;21.53;53.41
13952;BME280;39535;52.192;9.886;2023-07-16T08:32:10;101293.84;;;21.63;54.33
13952;BME280;39535;52.192;9.886;2023-07-16T08:34:37;101271.19;;;21.73;54.17
13952;BME280;39535;52.192;9.886;2023-07-16T08:37:04;101310.72;;;21.79;51.83
13952;BME280;39535;52.192;9.886;2023-07-16T08:39:33;101349.22;;;21.88;51.20
13952;BME280;39535;52.192;9.886;2023-07-16T08:42:00;101328.59;;;21.93;52.78
13952;BME280;39535;52.192;9.886;2023-07-16T08:44:28;101380.47;;;21.85;51.98
13952;BME280;39535;52.192;9.886;2023-07-16T08:46:55;101375.94;;;21.87;52.62
13952;BME280;39535;52.192;9.886;2023-07-16T08:49:23;101387.66;;;21.83;50.34
13952;BME280;39535;52.192;9.886;2023-07-16T08:51:49;101357.59;;;21.98;53.10
13952;BME280;39535;52.192;9.886;2023-07-16T08:54:16;101345.06;;;22.00;50.94
13952;BME280;39535;52.192;9.886;2023-07-16T08:56:47;101334.16;;;22.06;52.38
13952;BME280;39535;52.192;9.886;2023-07-16T08:59:14;101307.13;;;22.14;53.27
13952;BME280;39535;52.192;9.886;2023-07-16T09:01:44;101321.53;;;22.10;51.69
13952;BME280;39535;52.192;9.886;2023-07-16T09:04:12;101347.91;;;22.14;51.32
13952;BME280;39535;52.192;9.886;2023-07-16T09:06:39;101330.28;;;22.29;52.39
13952;BME280;39535;52.192;9.886;2023-07-16T09:09:06;101367.59;;;22.28;49.83
13952;BME280;39535;52.192;9.886;2023-07-16T09:11:33;101411.19;;;22.25;49.34
13952;BME280;39535;52.192;9.886;2023-07-16T09:14:02;101414.22;;;22.35;50.31
13952;BME280;39535;52.192;9.886;2023-07-16T09:16:32;101447.56;;;22.42;49.65
13952;BME280;39535;52.192;9.886;2023-07-16T09:19:05;101389.47;;;22.50;51.76
13952;BME280;39535;52.192;9.886;2023-07-16T09:21:32;101410.75;;;22.50;48.70
13952;BME280;39535;52.192;9.886;2023-07-16T09:24:00;101452.28;;;22.53;48.74
13952;BME280;39535;52.192;9.886;2023-07-16T09:26:26;101436.00;;;22.59;49.48
13952;BME280;39535;52.192;9.886;2023-07-16T09:28:53;101454.63;;;22.59;50.00
13952;BME280;39535;52.192;9.886;2023-07-16T09:31:21;101442.66;;;22.68;49.11
13952;BME280;39535;52.192;9.886;2023-07-16T09:33:48;101447.00;;;22.69;49.22
13952;BME280;39535;52.192;9.886;2023-07-16T09:36:23;101451.94;;;22.76;47.53
13952;BME280;39535;52.192;9.886;2023-07-16T09:38:49;101452.81;;;22.93;48.67
13952;BME280;39535;52.192;9.886;2023-07-16T09:41:17;101461.34;;;22.99;47.88
13952;BME280;39535;52.192;9.886;2023-07-16T09:43:44;101500.31;;;23.00;47.20
13952;BME280;39535;52.192;9.886;2023-07-16T09:46:10;101525.66;;;22.92;46.57
13952;BME280;39535;52.192;9.886;2023-07-16T09:48:38;101538.53;;;22.84;47.31
13952;BME280;39535;52.192;9.886;2023-07-16T09:51:06;101507.72;;;22.95;48.90
13952;BME280;39535;52.192;9.886;2023-07-16T09:53:36;101496.19;;;22.95;47.49
13952;BME280;39535;52.192;9.886;2023-07-16T09:56:03;101503.59;;;22.90;47.02
13952;BME280;39535;52.192;9.886;2023-07-16T09:58:31;101537.13;;;22.76;46.36
13952;BME280;39535;52.192;9.886;2023-07-16T10:00:58;101555.34;;;22.84;46.22
13952;BME280;39535;52.192;9.886;2023-07-16T10:03:26;101551.31;;;22.93;47.02
13952;BME280;39535;52.192;9.886;2023-07-16T10:06:05;101540.94;;;23.06;47.51
13952;BME280;39535;52.192;9.886;2023-07-16T10:08:33;101503.75;;;23.20;48.48
13952;BME280;39535;52.192;9.886;2023-07-16T10:11:00;101499.69;;;23.29;46.86
13952;BME280;39535;52.192;9.886;2023-07-16T10:13:27;101525.50;;;23.28;47.71
13952;BME280;39535;52.192;9.886;2023-07-16T10:15:54;101551.19;;;22.96;45.85
13952;BME280;39535;52.192;9.886;2023-07-16T10:18:28;101536.81;;;23.16;47.40
13952;BME280;39535;52.192;9.886;2023-07-16T10:21:02;101559.69;;;23.20;46.78
13952;BME280;39535;52.192;9.886;2023-07-16T10:23:37;101579.59;;;23.13;45.40
13952;BME280;39535;52.192;9.886;2023-07-16T10:26:05;101602.69;;;22.95;44.81
13952;BME280;39535;52.192;9.886;2023-07-16T10:28:32;101621.84;;;23.03;44.65
13952;BME280;39535;52.192;9.886;2023-07-16T10:30:59;101619.22;;;23.19;45.43
13952;BME280;39535;52.192;9.886;2023-07-16T10:33:25;101624.91;;;23.29;44.71
13952;BME280;39535;52.192;9.886;2023-07-16T10:35:52;101606.56;;;23.40;45.18
13952;BME280;39535;52.192;9.886;2023-07-16T10:38:20;101611.63;;;23.45;44.60
13952;BME280;39535;52.192;9.886;2023-07-16T10:40:46;101642.16;;;23.39;44.29
13952;BME280;39535;52.192;9.886;2023-07-16T10:43:13;101646.59;;;23.38;43.97
13952;BME280;39535;52.192;9.886;2023-07-16T10:45:40;101657.03;;;23.43;44.26
13952;BME280;39535;52.192;9.886;2023-07-16T10:48:07;101628.69;;;23.58;45.11
13952;BME280;39535;52.192;9.886;2023-07-16T10:50:35;101670.19;;;23.46;43.69
13952;BME280;39535;52.192;9.886;2023-07-16T10:53:02;101651.72;;;23.43;44.32
13952;BME280;39535;52.192;9.886;2023-07-16T10:55:30;101656.34;;;23.39;45.05
13952;BME280;39535;52.192;9.886;2023-07-16T10:58:04;101625.28;;;23.38;46.32
13952;BME280;39535;52.192;9.886;2023-07-16T11:00:30;101634.25;;;23.37;44.39
13952;BME280;39535;52.192;9.886;2023-07-16T11:02:57;101634.75;;;23.44;44.31
13952;BME280;39535;52.192;9.886;2023-07-16T11:05:23;101655.22;;;23.44;44.31
13952;BME280;39535;52.192;9.886;2023-07-16T11:07:50;101660.53;;;23.61;44.35
13952;BME280;39535;52.192;9.886;2023-07-16T11:10:17;101650.09;;;23.72;44.40
13952;BME280;39535;52.192;9.886;2023-07-16T11:12:50;101688.78;;;23.48;43.09
13952;BME280;39535;52.192;9.886;2023-07-16T11:15:17;101679.69;;;23.34;42.82
13952;BME280;39535;52.192;9.886;2023-07-16T11:17:48;101698.16;;;23.55;42.44
13952;BME280;39535;52.192;9.886;2023-07-16T11:20:15;101725.03;;;23.68;42.39
13952;BME280;39535;52.192;9.886;2023-07-16T11:22:41;101717.16;;;23.82;42.92
13952;BME280;39535;52.192;9.886;2023-07-16T11:25:11;101695.19;;;24.10;44.19
13952;BME280;39535;52.192;9.886;2023-07-16T11:27:40;101701.81;;;24.19;43.01
13952;BME280;39535;52.192;9.886;2023-07-16T11:30:09;101721.59;;;24.15;42.27
13952;BME280;39535;52.192;9.886;2023-07-16T11:32:37;101737.41;;;24.02;42.07
13952;BME280;39535;52.192;9.886;2023-07-16T11:35:05;101733.31;;;24.28;42.83
13952;BME280;39535;52.192;9.886;2023-07-16T11:37:34;101709.72;;;24.36;41.56
13952;BME280;39535;52.192;9.886;2023-07-16T11:40:01;101725.22;;;25.08;41.69
13952;BME280;39535;52.192;9.886;2023-07-16T11:42:29;101803.94;;;25.77;39.47
13952;BME280;39535;52.192;9.886;2023-07-16T11:44:56;101867.84;;;26.41;36.42
13952;BME280;39535;52.192;9.886;2023-07-16T11:47:24;101976.34;;;26.18;37.27
13952;BME280;39535;52.192;9.886;2023-07-16T11:49:51;101983.41;;;26.63;36.93
13952;BME280;39535;52.192;9.886;2023-07-16T11:52:20;101993.44;;;26.88;37.08
13952;BME280;39535;52.192;9.886;2023-07-16T11:54:47;102049.91;;;26.85;35.14
13952;BME280;39535;52.192;9.886;2023-07-16T11:57:14;102064.53;;;27.37;35.45
13952;BME280;39535;52.192;9.886;2023-07-16T11:59:41;102045.91;;;28.17;34.54
13952;BME280;39535;52.192;9.886;2023-07-16T12:02:08;102110.50;;;28.41;33.04
13952;BME280;39535;52.192;9.886;2023-07-16T12:04:35;102143.31;;;28.46;33.69
13952;BME280;39535;52.192;9.886;2023-07-16T12:07:02;102140.81;;;28.43;34.66
13952;BME280;39535;52.192;9.886;2023-07-16T12:09:28;102145.91;;;28.21;34.48
13952;BME280;39535;52.192;9.886;2023-07-16T12:11:56;102167.78;;;27.73;33.27
13952;BME280;39535;52.192;9.886;2023-07-16T12:14:22;102149.94;;;27.72;34.51
13952;BME280;39535;52.192;9.886;2023-07-16T12:16:49;102121.44;;;27.28;35.79
13952;BME280;39535;52.192;9.886;2023-07-16T12:19:15;102055.84;;;27.33;36.47
13952;BME280;39535;52.192;9.886;2023-07-16T12:21:43;102031.94;;;27.58;35.54
13952;BME280;39535;52.192;9.886;2023-07-16T12:24:10;102039.50;;;27.51;35.24
13952;BME280;39535;52.192;9.886;2023-07-16T12:26:36;102051.25;;;27.36;34.30
13952;BME280;39535;52.192;9.886;2023-07-16T12:29:03;102062.63;;;27.10;34.79
13952;BME280;39535;52.192;9.886;2023-07-16T12:31:30;102053.16;;;26.90;35.72
13952;BME280;39535;52.192;9.886;2023-07-16T12:33:57;102034.19;;;26.65;35.89
13952;BME280;39535;52.192;9.886;2023-07-16T12:36:24;102023.28;;;26.97;35.57
13952;BME280;39535;52.192;9.886;2023-07-16T12:38:51;102018.03;;;26.66;35.83
13952;BME280;39535;52.192;9.886;2023-07-16T12:41:18;102001.19;;;26.79;36.21
13952;BME280;39535;52.192;9.886;2023-07-16T12:43:45;102014.44;;;26.37;34.95
13952;BME280;39535;52.192;9.886;2023-07-16T12:46:12;102020.97;;;26.17;35.89
13952;BME280;39535;52.192;9.886;2023-07-16T12:48:38;101996.53;;;26.23;35.70
13952;BME280;39535;52.192;9.886;2023-07-16T12:51:05;101957.53;;;26.33;37.36
13952;BME280;39535;52.192;9.886;2023-07-16T12:53:32;101952.00;;;26.37;35.98